SBPK

Details ICAO SBPK (PET)
Name Pelotas
Region Brazil
Timezone America/Sao_Paulo (UTC-2.0)
Plans Departing 27
Arriving 21
Stats Elevation 59 ft / 18 m (AMSL)
Location -31.720428° -52.327334°
Runways 2
Magnetic Variation 15.315° W
Sunrise 2017-12-14 08:19:29 UTC / 2017-12-14 06:19:29 Local
Sunset 2017-12-14 22:31:26 UTC / 2017-12-14 20:31:26 Local
Advertisement - Login to hide

Runways

ID Width Length Bearing (true) Bearing (mag) Surface Threshold Offset Overrun Length
06 138 ft / 42 m 6,501 ft / 1,982 m 51.16° 66.47° Concrete 0 ft / 0 m 0 ft / 0 m
15 138 ft / 42 m 4,050 ft / 1,234 m 142.34° 157.65° Grass 0 ft / 0 m 0 ft / 0 m
24 138 ft / 42 m 6,501 ft / 1,982 m 231.15° 246.46° Concrete 0 ft / 0 m 0 ft / 0 m
33 138 ft / 42 m 4,050 ft / 1,234 m 322.34° 337.65° Grass 0 ft / 0 m 0 ft / 0 m

Map

Weather


0- 5 10 15 20 25 30 35+ Temperature / ° C

Clouds and Precipitation
Forecast for 2017-12-14 12:00 UTC. Updated 2 hours ago

Ground ~20,000 ft ~40,000 ft Winds

METAR

SBPK 141300Z 31007KT 9999 FEW025 31/20 Q1010

TAF

Not found

Frequencies

Tower 125.90 MHz RDO
Warning: Do not use this data for real-world aviation or navigation. No guarantee of current accuracy is given.